Time;durP1;ratioP1;P1;durP2;ratioP2;P2;SDS_P1;SDS_P2;PMS_P1;PMS_P2;Temp;Humidity;BMP_temperature;BMP_pressure;BME280_temperature;BME280_humidity;BME280_pressure;Samples;Min_cycle;Max_cycle;Signal;HPM_P1;HPM_P2
2022/07/01 00:00:57;;;;;;;4.90;3.92;;;;;;;23.64;59.51;99976.27;1482192;86;22492;-88
2022/07/01 00:03:24;;;;;;;17.57;4.53;;;;;;;23.62;58.90;99973.52;1479702;86;22496;-88
2022/07/01 00:05:51;;;;;;;10.72;4.35;;;;;;;23.61;58.41;99978.64;1476255;88;21596;-88
2022/07/01 00:08:18;;;;;;;7.53;4.22;;;;;;;23.62;57.85;99977.06;1495362;86;21337;-92
2022/07/01 00:10:45;;;;;;;11.95;5.00;;;;;;;23.63;57.64;99980.58;1497452;86;21375;-90
2022/07/01 00:13:12;;;;;;;8.00;4.22;;;;;;;23.63;57.77;99981.93;1504623;86;21360;-91
2022/07/01 00:15:41;;;;;;;9.55;4.65;;;;;;;23.62;58.00;99977.56;1456059;89;21354;-90
2022/07/01 00:18:08;;;;;;;13.40;4.83;;;;;;;23.61;57.86;99977.30;1492057;87;21538;-90
2022/07/01 00:20:35;;;;;;;10.15;4.17;;;;;;;23.62;57.79;99983.81;1495857;86;21493;-91
2022/07/01 00:23:02;;;;;;;9.98;5.22;;;;;;;23.57;57.53;99983.72;1462548;88;22054;-90
2022/07/01 00:25:30;;;;;;;7.35;4.00;;;;;;;23.55;57.67;99985.84;1468943;88;21552;-88
2022/07/01 00:27:58;;;;;;;9.38;4.00;;;;;;;23.54;57.50;99992.85;1472005;88;21353;-90
2022/07/01 00:30:25;;;;;;;13.78;4.05;;;;;;;23.50;57.57;99987.63;1477628;88;21405;-90
2022/07/01 00:32:53;;;;;;;11.68;3.77;;;;;;;23.50;57.28;99988.98;1471069;88;21533;-90
2022/07/01 00:35:21;;;;;;;8.40;4.08;;;;;;;23.51;57.26;99991.98;1467609;88;22386;-89
2022/07/01 00:37:48;;;;;;;10.95;5.67;;;;;;;23.49;57.43;99988.70;1471897;88;22448;-89
2022/07/01 00:40:15;;;;;;;6.53;4.20;;;;;;;23.40;57.34;99986.39;1476956;88;21438;-90
2022/07/01 00:42:43;;;;;;;12.03;4.40;;;;;;;23.31;57.77;99991.09;1470005;87;21501;-89
2022/07/01 00:45:11;;;;;;;11.43;4.42;;;;;;;23.17;58.17;99987.32;1466135;88;21472;-89
2022/07/01 00:47:40;;;;;;;10.88;3.60;;;;;;;23.05;58.25;99989.80;1475563;88;21619;-89
2022/07/01 00:50:12;;;;;;;6.80;4.53;;;;;;;22.93;58.75;99996.02;1474320;87;21634;-89
2022/07/01 00:52:41;;;;;;;13.35;4.33;;;;;;;22.82;59.31;99998.21;1475836;88;21464;-87
2022/07/01 00:55:12;;;;;;;7.03;4.03;;;;;;;22.75;59.57;99997.51;1465852;88;21559;-87
2022/07/01 00:57:41;;;;;;;7.60;3.60;;;;;;;22.70;59.63;99997.39;1467972;88;21726;-89
2022/07/01 01:00:14;;;;;;;10.90;4.60;;;;;;;22.62;59.99;99995.09;1456847;88;21478;-88
2022/07/01 01:02:42;;;;;;;9.58;3.98;;;;;;;22.50;60.15;100002.67;1476947;88;21607;-88
2022/07/01 01:05:10;;;;;;;11.88;4.05;;;;;;;22.39;60.40;100004.84;1472521;88;21382;-89
2022/07/01 01:07:37;;;;;;;7.97;4.05;;;;;;;22.35;60.51;100005.53;1468448;88;21323;-89
2022/07/01 01:10:05;;;;;;;6.72;4.00;;;;;;;22.31;60.99;100006.55;1478670;88;21316;-90
2022/07/01 01:12:33;;;;;;;9.60;4.37;;;;;;;22.27;61.26;100006.73;1470464;88;21279;-89
2022/07/01 01:15:01;;;;;;;10.48;4.50;;;;;;;22.18;61.21;100014.84;1474640;87;21367;-89
2022/07/01 01:17:28;;;;;;;6.83;3.47;;;;;;;22.11;61.65;100008.73;1472990;88;21538;-90
2022/07/01 01:19:55;;;;;;;7.55;4.40;;;;;;;22.07;61.69;100007.05;1475929;88;21411;-89
2022/07/01 01:22:22;;;;;;;6.20;4.17;;;;;;;22.02;61.99;100002.34;1473882;88;21338;-89
2022/07/01 01:24:49;;;;;;;10.70;4.30;;;;;;;21.98;62.43;100006.56;1478549;88;21419;-89
2022/07/01 01:27:16;;;;;;;8.25;4.25;;;;;;;21.96;62.25;99999.77;1476198;88;21352;-89
2022/07/01 01:29:44;;;;;;;7.00;4.25;;;;;;;21.90;62.23;100000.70;1451155;88;21449;-89
2022/07/01 01:32:11;;;;;;;13.25;5.35;;;;;;;21.86;62.68;100008.41;1485959;88;22373;-89
2022/07/01 01:34:42;;;;;;;9.30;4.35;;;;;;;21.84;62.42;100007.84;1470487;88;22291;-89
2022/07/01 01:37:09;;;;;;;7.25;4.33;;;;;;;21.79;62.67;100007.70;1474053;88;22410;-88
2022/07/01 01:39:37;;;;;;;15.10;3.70;;;;;;;21.79;63.04;100011.74;1468338;88;21434;-88
2022/07/01 01:42:06;;;;;;;7.30;4.12;;;;;;;21.79;63.16;100012.56;1472501;88;21308;-88
2022/07/01 01:44:33;;;;;;;9.98;4.05;;;;;;;21.78;63.05;100016.81;1472921;87;21374;-88
2022/07/01 01:47:01;;;;;;;6.00;4.08;;;;;;;21.72;63.29;100020.44;1467692;88;22454;-88
2022/07/01 01:49:28;;;;;;;8.23;5.37;;;;;;;21.62;63.64;100021.82;1466780;88;22550;-89
2022/07/01 01:51:59;;;;;;;13.35;4.35;;;;;;;21.56;63.61;100014.67;1459195;88;21531;-89
2022/07/01 01:54:27;;;;;;;11.48;4.45;;;;;;;21.51;63.81;100019.09;1477065;88;21596;-88
2022/07/01 01:56:54;;;;;;;4.80;3.98;;;;;;;21.47;63.99;100013.36;1475542;88;21486;-89
2022/07/01 01:59:21;;;;;;;6.30;3.80;;;;;;;;;;1474185;88;21374;-89
2022/07/01 02:01:48;;;;;;;16.77;5.30;;;;;;;21.47;64.46;100012.02;1483241;88;21591;-88
2022/07/01 02:04:15;;;;;;;7.78;4.75;;;;;;;21.49;64.41;100015.30;1475655;88;21485;-89
2022/07/01 02:06:42;;;;;;;8.75;4.08;;;;;;;21.49;64.71;100019.84;1488443;86;21382;-89
2022/07/01 02:09:09;;;;;;;12.90;4.72;;;;;;;21.49;64.56;100024.73;1438293;90;21479;-88
2022/07/01 02:11:37;;;;;;;7.00;4.10;;;;;;;21.50;64.78;100029.05;1485342;88;21294;-90
2022/07/01 02:14:04;;;;;;;7.75;4.22;;;;;;;21.50;65.38;100023.67;1474195;88;22388;-89
2022/07/01 02:16:31;;;;;;;10.38;4.35;;;;;;;21.51;65.31;100019.91;1436902;91;22418;-88
2022/07/01 02:18:58;;;;;;;6.22;4.00;;;;;;;21.51;65.31;100015.88;1480581;88;22381;-88
2022/07/01 02:21:26;;;;;;;6.15;4.35;;;;;;;21.49;65.19;100018.00;1477104;88;21361;-88
2022/07/01 02:23:53;;;;;;;7.92;4.80;;;;;;;21.48;64.83;100021.72;1471202;87;21558;-89
2022/07/01 02:26:21;;;;;;;13.38;4.47;;;;;;;21.46;64.62;100025.16;1475104;88;21493;-87
2022/07/01 02:28:48;;;;;;;7.47;4.37;;;;;;;21.48;64.77;100020.37;1481413;87;21367;-88
2022/07/01 02:31:15;;;;;;;9.90;4.70;;;;;;;21.48;64.79;100019.55;1480147;86;21331;-88
2022/07/01 02:33:42;;;;;;;8.43;3.95;;;;;;;21.53;64.55;100021.05;1505404;86;21359;-88
2022/07/01 02:36:09;;;;;;;7.37;4.65;;;;;;;21.60;64.65;100031.99;1507851;86;21367;-88
2022/07/01 02:38:37;;;;;;;15.35;5.33;;;;;;;21.62;64.83;100028.55;1507474;86;21404;-88
2022/07/01 02:41:03;;;;;;;8.95;3.77;;;;;;;21.65;64.73;100035.89;1505121;86;21391;-88
2022/07/01 02:43:31;;;;;;;11.28;4.20;;;;;;;21.62;64.82;100036.63;1457428;89;22373;-88
2022/07/01 02:46:00;;;;;;;8.78;4.45;;;;;;;21.60;64.60;100033.34;1473047;87;22321;-88
2022/07/01 02:48:27;;;;;;;10.60;4.40;;;;;;;21.60;64.51;100034.69;1476960;88;21368;-88
2022/07/01 02:50:54;;;;;;;6.83;4.90;;;;;;;21.60;64.21;100029.30;1471511;87;21353;-89
2022/07/01 02:53:21;;;;;;;6.62;4.15;;;;;;;21.62;64.12;100037.98;1488082;87;21398;-88
2022/07/01 02:55:48;;;;;;;10.88;4.40;;;;;;;21.65;63.84;100037.23;1470011;88;21393;-88
2022/07/01 02:58:15;;;;;;;13.05;5.83;;;;;;;21.66;63.74;100038.86;1469619;88;21347;-88
2022/07/01 03:00:42;;;;;;;11.15;4.90;;;;;;;21.67;63.72;100041.88;1482821;88;22307;-88
2022/07/01 03:03:10;;;;;;;10.58;5.40;;;;;;;21.69;63.75;100045.14;1464627;86;22337;-88
2022/07/01 03:05:38;;;;;;;5.42;4.55;;;;;;;21.69;63.59;100047.83;1499269;86;21359;-88
2022/07/01 03:08:05;;;;;;;11.73;4.70;;;;;;;21.70;63.58;100048.14;1463075;89;21560;-89
2022/07/01 03:10:32;;;;;;;9.58;4.53;;;;;;;21.71;63.70;100059.20;1493330;86;21418;-88
2022/07/01 03:13:01;;;;;;;8.10;4.65;;;;;;;21.72;63.59;100059.48;1491344;86;21574;-89
2022/07/01 03:15:29;;;;;;;6.65;5.30;;;;;;;21.69;63.58;100058.60;1499170;86;21419;-88
2022/07/01 03:17:56;;;;;;;13.68;5.20;;;;;;;21.71;63.46;100054.63;1508220;85;21294;-89
2022/07/01 03:20:30;;;;;;;11.70;5.05;;;;;;;21.73;63.30;100053.07;1493986;86;21369;-89
2022/07/01 03:23:01;;;;;;;13.22;5.55;;;;;;;21.76;63.17;100062.03;1489211;86;21374;-89
2022/07/01 03:25:31;;;;;;;7.65;4.50;;;;;;;21.80;63.41;100066.72;1451075;89;21961;-89
2022/07/01 03:28:03;;;;;;;10.20;6.45;;;;;;;21.81;63.28;100065.68;1477024;87;22431;-89
2022/07/01 03:30:28;;;;;;;;;;;;;;;21.84;63.39;100069.79;1476595;86;21450;-90
2022/07/01 03:32:55;;;;;;;18.37;5.55;;;;;;;21.84;63.61;100069.79;1489780;86;20311;-88
2022/07/01 03:35:45;;;;;;;16.73;5.40;;;;;;;21.87;63.33;100076.06;1499184;86;21433;-89
2022/07/01 03:38:10;;;;;;;13.68;4.72;;;;;;;21.89;63.80;100071.25;1493539;86;21477;-90
2022/07/01 03:40:38;;;;;;;9.68;5.53;;;;;;;21.92;63.87;100069.44;1498385;86;21787;-90
2022/07/01 03:43:06;;;;;;;17.10;5.28;;;;;;;21.97;63.71;100074.14;1478851;86;21419;-92
2022/07/01 03:45:33;;;;;;;16.45;5.72;;;;;;;22.01;63.96;100072.11;1465985;88;21348;-88
2022/07/01 03:48:02;;;;;;;10.80;6.05;;;;;;;22.05;63.64;100067.89;1470642;88;21384;-89
2022/07/01 03:50:29;;;;;;;23.07;5.22;;;;;;;22.06;63.48;100077.61;1469852;86;21457;-84
2022/07/01 03:55:42;;;;;;;42.93;7.47;;;;;;;22.12;63.25;100087.98;1476219;88;22610;-83
2022/07/01 03:58:09;;;;;;;35.73;6.75;;;;;;;22.18;62.99;100076.84;1469636;88;21457;-83
2022/07/01 04:00:38;;;;;;;25.77;7.55;;;;;;;22.26;63.08;100081.89;1486878;87;22284;-86
2022/07/01 04:03:06;;;;;;;33.83;6.30;;;;;;;22.32;62.77;100082.30;1470496;88;21515;-87
2022/07/01 04:05:36;;;;;;;27.75;7.03;;;;;;;22.36;63.01;100075.41;1474671;88;21367;-85
2022/07/01 04:08:07;;;;;;;28.62;6.70;;;;;;;22.40;62.86;100083.31;1469136;88;22292;-86
2022/07/01 04:10:35;;;;;;;33.98;8.70;;;;;;;22.47;62.45;100079.98;1473124;88;21901;-85
2022/07/01 04:13:03;;;;;;;41.48;7.97;;;;;;;22.51;62.35;100082.50;1502507;87;21396;-85
2022/07/01 04:15:31;;;;;;;27.90;7.25;;;;;;;22.57;62.12;100078.05;1500274;86;21428;-84
2022/07/01 04:17:59;;;;;;;32.17;6.97;;;;;;;22.65;62.02;100076.88;1472110;88;21353;-83
2022/07/01 04:20:26;;;;;;;19.57;5.78;;;;;;;22.77;61.91;100082.26;1468765;88;21382;-84
2022/07/01 04:22:53;;;;;;;32.50;7.45;;;;;;;22.86;61.48;100088.39;1479036;88;21346;-84
2022/07/01 04:25:20;;;;;;;15.80;5.78;;;;;;;22.93;61.22;100103.95;1468476;88;21411;-84
2022/07/01 04:27:47;;;;;;;16.00;6.15;;;;;;;23.03;61.20;100097.16;1475724;88;21397;-85
2022/07/01 04:30:14;;;;;;;14.63;5.80;;;;;;;23.12;60.98;100101.12;1457279;88;21338;-84
2022/07/01 04:32:41;;;;;;;21.65;5.90;;;;;;;23.20;60.63;100094.00;1472975;87;21567;-88
2022/07/01 04:35:11;;;;;;;11.95;5.70;;;;;;;23.29;60.24;100098.50;1460603;87;21538;-88
2022/07/01 04:37:38;;;;;;;18.48;5.78;;;;;;;23.33;59.82;100100.99;1450828;89;21398;-88
2022/07/01 04:40:08;;;;;;;14.23;5.42;;;;;;;23.36;59.34;100085.66;1471883;88;21507;-88
2022/07/01 04:42:35;;;;;;;17.25;6.53;;;;;;;23.36;59.34;100085.66;1458564;89;21571;-88
2022/07/01 04:45:03;;;;;;;11.40;5.45;;;;;;;23.51;59.58;100083.28;1501309;86;21537;-88
2022/07/01 04:47:32;;;;;;;18.55;5.58;;;;;;;23.68;59.60;100081.98;1489835;86;21345;-91
2022/07/01 04:50:01;;;;;;;17.35;6.12;;;;;;;23.81;59.25;100085.73;1480814;86;22357;-91
2022/07/01 04:52:28;;;;;;;12.55;6.25;;;;;;;23.85;58.75;100086.91;1455500;89;21471;-91
2022/07/01 04:54:55;;;;;;;16.70;6.87;;;;;;;23.99;58.44;100088.75;1434566;90;21428;-91
2022/07/01 04:57:22;;;;;;;20.97;6.55;;;;;;;24.07;58.24;100088.89;1472963;88;21345;-92
2022/07/01 04:59:49;;;;;;;51.48;8.43;;;;;;;24.16;58.19;100094.17;1480258;87;21359;-91
2022/07/01 05:02:16;;;;;;;20.40;6.42;;;;;;;24.29;58.14;100094.39;1481826;87;21345;-91
2022/07/01 05:04:43;;;;;;;11.00;5.58;;;;;;;24.45;58.01;100095.47;1485309;87;22478;-92
2022/07/01 05:07:27;;;;;;;31.00;6.25;;;;;;;24.61;57.72;100103.30;1471983;87;22240;-92
2022/07/01 05:09:39;;;;;;;21.10;5.10;;;;;;;24.72;57.23;100105.89;1472523;87;21397;-94
2022/07/01 05:12:07;;;;;;;28.60;7.25;;;;;;;24.86;57.20;100115.00;1466852;87;22350;-95
2022/07/01 05:14:34;;;;;;;14.98;5.80;;;;;;;24.97;56.84;100113.56;1479686;88;22594;-94
2022/07/01 05:17:02;;;;;;;14.15;5.55;;;;;;;25.11;56.79;100114.53;1474855;87;22505;-94
2022/07/01 05:22:14;;;;;;;32.20;7.40;;;;;;;25.36;56.61;100115.42;1480378;87;22288;-94
2022/07/01 05:24:41;;;;;;;23.05;5.97;;;;;;;25.54;56.40;100117.78;1485521;87;21411;-93
2022/07/01 05:27:08;;;;;;;22.60;7.12;;;;;;;25.66;56.33;100122.55;1479308;87;21434;-93
2022/07/01 05:29:35;;;;;;;20.20;6.87;;;;;;;25.77;55.96;100118.03;1477817;88;21456;-93
2022/07/01 05:32:03;;;;;;;25.85;6.58;;;;;;;25.91;55.65;100125.25;1471961;88;21397;-93
2022/07/01 05:34:30;;;;;;;21.48;6.83;;;;;;;26.02;55.43;100117.50;1453715;89;21431;-93
2022/07/01 05:36:57;;;;;;;23.35;7.53;;;;;;;26.14;54.96;100123.30;1476343;88;21441;-90
2022/07/01 05:39:25;;;;;;;47.33;8.18;;;;;;;26.28;54.58;100124.50;1474431;88;21367;-90
2022/07/01 05:41:52;;;;;;;25.02;7.20;;;;;;;26.42;54.21;100126.24;1472041;88;21442;-90
2022/07/01 05:44:20;;;;;;;26.55;6.95;;;;;;;26.54;53.57;100129.61;1469811;86;22335;-89
2022/07/01 05:46:47;;;;;;;29.72;6.60;;;;;;;26.66;52.83;100133.49;1493865;86;21263;-90
2022/07/01 05:49:14;;;;;;;22.37;7.15;;;;;;;26.78;52.31;100134.11;1456841;89;21361;-91
2022/07/01 05:51:41;;;;;;;22.27;6.70;;;;;;;26.89;51.52;100139.88;1469507;88;21533;-91
2022/07/01 05:54:08;;;;;;;27.52;6.45;;;;;;;26.93;51.42;100139.65;1472742;89;22486;-91
2022/07/01 05:56:35;;;;;;;25.25;6.28;;;;;;;27.03;50.85;100137.52;1471866;89;22523;-90
2022/07/01 05:59:02;;;;;;;20.20;6.25;;;;;;;27.16;50.76;100138.44;1478569;88;21472;-91
2022/07/01 06:01:29;;;;;;;16.48;5.92;;;;;;;27.31;50.59;100144.48;1453870;89;21504;-94
2022/07/01 06:03:56;;;;;;;23.35;5.97;;;;;;;27.51;50.53;100136.14;1472009;88;21579;-93
2022/07/01 06:06:23;;;;;;;18.80;6.78;;;;;;;27.70;50.28;100139.97;1447094;88;21449;-91
2022/07/01 06:08:50;;;;;;;18.73;6.42;;;;;;;27.86;49.76;100138.96;1473607;88;21508;-92
2022/07/01 06:11:17;;;;;;;28.85;6.35;;;;;;;27.99;49.41;100140.88;1479531;88;22631;-90
2022/07/01 06:13:45;;;;;;;19.90;6.05;;;;;;;28.04;49.11;100143.61;1465669;87;21340;-91
2022/07/01 06:16:14;;;;;;;29.72;6.50;;;;;;;28.00;48.14;100137.91;1448038;89;21542;-91
2022/07/01 06:18:41;;;;;;;23.12;6.47;;;;;;;28.00;48.79;100142.53;1463764;88;21500;-90
2022/07/01 06:21:08;;;;;;;15.58;5.58;;;;;;;28.18;49.60;100144.71;1464923;88;21362;-90
2022/07/01 06:23:35;;;;;;;19.65;6.92;;;;;;;28.40;49.48;100132.72;1475620;87;21397;-90
2022/07/01 06:26:03;;;;;;;21.50;6.05;;;;;;;28.59;49.36;100137.92;1473448;86;21411;-91
2022/07/01 06:28:31;;;;;;;23.83;6.47;;;;;;;28.75;48.54;100140.09;1469122;88;21478;-91
2022/07/01 06:30:58;;;;;;;26.20;5.37;;;;;;;28.90;48.46;100144.68;1469468;88;21389;-91
2022/07/01 06:33:29;;;;;;;21.30;6.45;;;;;;;29.07;48.06;100138.39;1457169;87;22433;-90
2022/07/01 06:35:54;;;;;;;16.17;5.80;;;;;;;29.19;46.99;100134.80;1470431;86;21524;-93
2022/07/01 06:38:24;;;;;;;19.85;5.83;;;;;;;29.33;46.63;100135.58;1500657;86;21281;-94
2022/07/01 06:43:37;;;;;;;25.97;6.17;;;;;;;29.65;46.31;100138.70;1487325;86;21360;-92
2022/07/01 06:46:05;;;;;;;22.13;5.10;;;;;;;29.84;45.62;100128.52;1478374;86;21544;-93
2022/07/01 06:48:33;;;;;;;28.25;5.28;;;;;;;30.03;45.56;100127.28;1475840;86;21537;-92
2022/07/01 06:51:01;;;;;;;35.88;6.42;;;;;;;30.09;45.05;100131.03;1489675;86;21323;-93
2022/07/01 06:53:28;;;;;;;18.02;5.17;;;;;;;30.18;44.94;100131.80;1482912;86;21513;-94
2022/07/01 06:55:57;;;;;;;27.00;5.78;;;;;;;30.30;44.88;100124.11;1494314;86;21447;-94
2022/07/01 06:58:24;;;;;;;17.33;5.43;;;;;;;30.45;45.06;100134.08;1493376;86;21517;-92
2022/07/01 07:00:52;;;;;;;16.30;6.20;;;;;;;30.51;44.79;100128.27;1482509;86;22084;-94
2022/07/01 07:03:20;;;;;;;23.10;5.33;;;;;;;30.51;44.09;100125.54;1484025;86;21374;-92
2022/07/01 07:05:47;;;;;;;18.90;5.42;;;;;;;30.58;44.02;100134.22;1448269;89;21450;-93
2022/07/01 07:08:15;;;;;;;26.33;5.20;;;;;;;30.67;44.61;100133.05;1476969;87;21279;-92
2022/07/01 07:10:42;;;;;;;24.23;5.53;;;;;;;30.79;44.18;100138.95;1461755;88;21457;-93
2022/07/01 07:13:09;;;;;;;22.67;6.05;;;;;;;30.96;43.42;100136.33;1490548;85;21338;-92
2022/07/01 07:15:41;;;;;;;17.52;5.90;;;;;;;31.08;42.95;100129.89;1490634;85;21345;-93
2022/07/01 07:18:07;;;;;;;32.17;6.67;;;;;;;31.23;42.98;100137.89;1489316;86;21271;-93
2022/07/01 07:20:34;;;;;;;19.37;4.70;;;;;;;31.32;42.28;100135.88;1494684;86;21412;-92
2022/07/01 07:23:02;;;;;;;28.05;5.15;;;;;;;31.42;42.23;100131.14;1492310;86;22219;-92
2022/07/01 07:25:29;;;;;;;18.70;6.33;;;;;;;31.56;42.31;100131.20;1470549;86;21350;-92
2022/07/01 07:28:10;;;;;;;19.02;4.90;;;;;;;31.75;42.29;100127.67;1491264;85;21374;-93
2022/07/01 07:30:39;;;;;;;17.87;4.58;;;;;;;31.94;41.89;100130.41;1488569;86;21510;-93
2022/07/01 07:33:07;;;;;;;17.77;5.97;;;;;;;32.02;41.45;100123.70;1488058;86;21374;-94
2022/07/01 07:35:34;;;;;;;28.83;5.70;;;;;;;32.20;41.54;100126.18;1493482;85;21369;-94
2022/07/01 07:38:02;;;;;;;13.58;5.62;;;;;;;32.36;41.11;100127.52;1466284;86;21300;-93
2022/07/01 07:40:29;;;;;;;17.67;5.33;;;;;;;32.49;40.42;100128.72;1489800;86;21428;-93
2022/07/01 07:42:56;;;;;;;21.77;5.17;;;;;;;32.68;39.74;100123.16;1481381;86;21406;-93
2022/07/01 07:45:23;;;;;;;35.20;5.78;;;;;;;32.87;40.12;100125.02;1468777;87;21354;-93
2022/07/01 07:47:54;;;;;;;23.77;5.75;;;;;;;32.97;40.49;100130.28;1458521;88;22226;-93
2022/07/01 07:50:22;;;;;;;18.23;5.47;;;;;;;33.06;39.92;100121.66;1437972;89;21640;-93
2022/07/01 07:52:49;;;;;;;21.07;5.15;;;;;;;33.23;39.34;100127.86;1453443;88;21337;-93
2022/07/01 07:55:17;;;;;;;17.27;4.28;;;;;;;33.28;38.46;100125.58;1446752;89;21382;-92
2022/07/01 07:57:44;;;;;;;26.52;5.15;;;;;;;33.15;37.89;100126.67;1471201;88;21353;-93
2022/07/01 08:00:13;;;;;;;23.83;6.28;;;;;;;33.32;37.61;100126.58;1462328;87;21390;-91
2022/07/01 08:02:42;;;;;;;15.25;4.70;;;;;;;33.50;38.06;100131.13;1449997;88;21348;-93
2022/07/01 08:05:11;;;;;;;21.30;3.90;;;;;;;33.52;37.72;100128.94;1462203;88;21429;-92
2022/07/01 08:07:42;;;;;;;16.15;4.30;;;;;;;33.50;36.89;100130.33;1467720;88;21571;-93
2022/07/01 08:10:13;;;;;;;20.10;4.50;;;;;;;33.36;35.87;100131.16;1450972;88;21330;-92
2022/07/01 08:12:41;;;;;;;10.93;4.35;;;;;;;33.25;36.42;100134.66;1486138;86;21566;-92
2022/07/01 08:15:10;;;;;;;20.00;4.92;;;;;;;33.22;36.57;100138.58;1492097;86;21352;-93
2022/07/01 08:17:37;;;;;;;25.95;5.35;;;;;;;33.31;35.94;100134.56;1487087;86;21515;-92
2022/07/01 08:20:06;;;;;;;27.77;4.70;;;;;;;33.37;36.49;100134.14;1493836;86;21411;-93
2022/07/01 08:22:33;;;;;;;19.70;4.85;;;;;;;33.47;36.70;100133.13;1475052;87;21463;-93
2022/07/01 08:25:00;;;;;;;15.15;3.75;;;;;;;33.52;36.25;100130.31;1472128;87;21581;-92
2022/07/01 08:27:27;;;;;;;20.62;5.35;;;;;;;33.66;36.67;100133.83;1459101;88;21463;-94
2022/07/01 08:29:56;;;;;;;18.48;5.15;;;;;;;33.77;36.56;100133.58;1482045;85;21329;-91
2022/07/01 08:32:26;;;;;;;13.58;3.83;;;;;;;33.94;35.57;100140.58;1493128;86;21346;-91
2022/07/01 08:34:53;;;;;;;22.87;4.70;;;;;;;33.96;35.05;100132.86;1490116;86;21543;-93
2022/07/01 08:37:21;;;;;;;11.38;3.65;;;;;;;34.05;34.83;100134.33;1490516;86;21531;-93
2022/07/01 08:39:48;;;;;;;17.17;4.20;;;;;;;34.22;34.60;100137.19;1450868;87;21688;-90
2022/07/01 08:42:17;;;;;;;12.05;4.12;;;;;;;34.39;34.61;100136.49;1414157;90;21397;-92
2022/07/01 08:44:44;;;;;;;13.08;4.35;;;;;;;34.53;34.46;100128.98;1434544;90;21434;-91
2022/07/01 08:47:13;;;;;;;16.48;3.90;;;;;;;34.71;34.80;100124.97;1451117;90;22294;-91
2022/07/01 08:49:44;;;;;;;14.47;3.87;;;;;;;34.86;33.60;100128.66;1458660;90;21444;-92
2022/07/01 08:52:11;;;;;;;13.60;3.98;;;;;;;34.98;33.40;100126.11;1435682;90;21560;-91
2022/07/01 08:54:40;;;;;;;16.80;3.62;;;;;;;35.12;33.23;100125.22;1418146;91;21552;-90
2022/07/01 08:57:08;;;;;;;12.10;3.62;;;;;;;35.12;32.71;100126.02;1414362;91;21472;-92
2022/07/01 08:59:36;;;;;;;11.85;3.87;;;;;;;35.18;31.77;100121.99;1444430;90;21523;-91
2022/07/01 09:02:05;;;;;;;13.22;3.60;;;;;;;35.21;31.99;100126.85;1445612;90;22490;-91
2022/07/01 09:04:33;;;;;;;12.98;4.08;;;;;;;35.29;31.74;100128.01;1445840;90;21488;-91
2022/07/01 09:07:09;;;;;;;19.15;4.12;;;;;;;35.30;31.07;100131.56;1443993;90;21611;-91
2022/07/01 09:09:41;;;;;;;15.70;4.42;;;;;;;35.48;32.32;100127.16;1445080;89;21369;-89
2022/07/01 09:12:09;;;;;;;16.82;4.33;;;;;;;35.54;32.12;100131.14;1421524;91;23396;-90
2022/07/01 09:14:39;;;;;;;11.55;4.50;;;;;;;35.51;32.00;100122.16;1430250;90;21375;-91
2022/07/01 09:17:07;;;;;;;19.05;4.65;;;;;;;35.60;32.37;100125.75;1434676;89;21589;-91
2022/07/01 09:19:38;;;;;;;20.17;3.67;;;;;;;35.61;31.99;100126.78;1444025;89;21405;-91
2022/07/01 09:22:05;;;;;;;14.60;3.77;;;;;;;35.76;31.72;100128.81;1431729;90;21390;-90
2022/07/01 09:24:42;;;;;;;11.35;3.95;;;;;;;35.85;32.24;100130.99;1433185;90;21382;-92
2022/07/01 09:27:13;;;;;;;12.80;3.92;;;;;;;35.91;32.00;100120.89;1452141;89;21479;-92
2022/07/01 09:29:52;;;;;;;20.48;4.60;;;;;;;35.96;31.67;100121.27;1450278;90;21326;-92
2022/07/01 09:32:22;;;;;;;41.10;5.30;;;;;;;36.01;31.70;100124.44;1481305;87;22392;-92
2022/07/01 09:34:51;;;;;;;10.30;3.95;;;;;;;36.10;31.38;100116.42;1447383;88;21381;-92
2022/07/01 09:37:24;;;;;;;73.37;6.60;;;;;;;36.21;31.34;100125.16;1462885;86;21739;-93
2022/07/01 09:39:55;;;;;;;20.32;3.92;;;;;;;36.25;31.04;100124.73;1447869;89;21409;-93
2022/07/01 09:42:26;;;;;;;20.90;4.30;;;;;;;36.41;31.04;100116.77;1445071;88;21496;-93
2022/07/01 09:45:10;;;;;;;19.00;5.03;;;;;;;36.44;30.15;100115.31;1447341;90;21392;-94
2022/07/01 09:47:46;;;;;;;25.82;4.78;;;;;;;36.49;30.31;100111.00;1449791;90;21517;-93
2022/07/01 09:50:17;;;;;;;9.95;3.22;;;;;;;36.45;29.54;100116.92;1445093;90;21489;-92
2022/07/01 09:52:44;;;;;;;30.05;4.58;;;;;;;36.65;30.20;100110.71;1451541;89;21429;-93
2022/07/01 09:55:12;;;;;;;19.92;3.95;;;;;;;36.76;29.41;100107.83;1446338;90;22769;-93
2022/07/01 09:57:40;;;;;;;15.43;4.05;;;;;;;36.73;28.41;100114.01;1446495;89;22324;-93
2022/07/01 10:00:08;;;;;;;12.68;4.50;;;;;;;36.68;28.86;100114.19;1447580;90;21415;-94
2022/07/01 10:02:36;;;;;;;17.35;4.37;;;;;;;36.85;28.88;100115.26;1452047;90;22266;-94
2022/07/01 10:05:09;;;;;;;17.73;4.03;;;;;;;36.97;28.90;100118.94;1464222;88;22405;-94
2022/07/01 10:08:02;;;;;;;13.05;3.90;;;;;;;37.06;29.13;100112.03;1446698;89;23177;-93
2022/07/01 10:10:53;;;;;;;11.95;4.30;;;;;;;37.24;29.14;100106.62;1442122;90;21391;-93
2022/07/01 10:13:25;;;;;;;18.85;4.35;;;;;;;37.37;29.04;100105.32;1445534;90;21463;-94
2022/07/01 10:15:54;;;;;;;13.03;3.90;;;;;;;37.26;27.88;100101.59;1432715;90;21316;-94
2022/07/01 10:18:26;;;;;;;18.15;4.10;;;;;;;37.40;28.06;100094.98;1425121;90;21464;-95
2022/07/01 10:20:55;;;;;;;15.98;4.00;;;;;;;37.48;28.48;100091.39;1458659;90;21369;-94
2022/07/01 10:23:31;;;;;;;27.00;4.53;;;;;;;37.54;28.11;100097.52;1443331;90;23158;-95
2022/07/01 10:26:04;;;;;;;21.75;3.67;;;;;;;37.54;28.42;100096.14;1452758;90;21364;-94
2022/07/01 10:28:43;;;;;;;13.68;4.22;;;;;;;37.61;28.26;100090.32;1470922;88;22289;-94
2022/07/01 10:31:16;;;;;;;17.27;4.28;;;;;;;37.65;28.47;100087.11;1453544;90;21393;-94
2022/07/01 10:33:58;;;;;;;52.35;5.55;;;;;;;37.66;28.26;100087.36;1448811;90;22185;-92
2022/07/01 10:36:35;;;;;;;19.25;5.08;;;;;;;37.62;27.49;100086.41;1438509;88;21481;-93
2022/07/01 10:39:22;;;;;;;18.05;4.78;;;;;;;37.69;28.05;100081.16;1443552;88;21401;-93
2022/07/01 10:41:58;;;;;;;13.22;4.33;;;;;;;37.78;28.39;100085.22;1442431;90;22860;-94
2022/07/01 10:44:28;;;;;;;18.45;4.10;;;;;;;37.81;28.34;100084.55;1439462;89;21403;-95
2022/07/01 10:47:06;;;;;;;19.35;5.50;;;;;;;37.81;28.10;100079.57;1432466;89;21324;-94
2022/07/01 10:49:47;;;;;;;23.60;4.20;;;;;;;37.74;27.59;100075.98;1440969;89;21360;-93
2022/07/01 10:52:15;;;;;;;23.35;5.65;;;;;;;37.82;27.65;100064.64;1429500;91;21391;-93
2022/07/01 10:54:48;;;;;;;16.80;4.50;;;;;;;37.99;27.91;100066.45;1442120;89;21373;-94
2022/07/01 10:57:29;;;;;;;16.05;4.08;;;;;;;38.04;27.48;100069.80;1460330;88;21610;-94
2022/07/01 11:00:05;;;;;;;38.83;4.87;;;;;;;38.09;28.18;100066.80;1435606;90;21474;-93
2022/07/01 11:02:36;;;;;;;18.27;5.05;;;;;;;38.18;27.31;100061.19;1407614;92;23404;-94
2022/07/01 11:05:09;;;;;;;22.77;4.87;;;;;;;38.27;27.07;100059.70;1404113;90;21436;-94
2022/07/01 11:07:42;;;;;;;17.40;4.62;;;;;;;38.25;26.96;100052.34;1400744;92;21496;-93
2022/07/01 11:10:11;;;;;;;12.55;5.03;;;;;;;38.09;26.88;100041.94;1386135;93;21687;-94
2022/07/01 11:12:38;;;;;;;;;;;;;;;37.91;27.21;100049.58;1480594;90;22163;-94
2022/07/01 11:15:06;;;;;;;14.73;4.67;;;;;;;38.08;28.38;100043.10;1381969;90;20433;-94
2022/07/01 11:17:35;;;;;;;30.60;5.20;;;;;;;38.21;27.08;100043.12;1403297;90;21555;-94
2022/07/01 11:20:03;;;;;;;13.62;4.90;;;;;;;38.45;27.27;100036.28;1390169;93;21641;-94
2022/07/01 11:22:33;;;;;;;19.17;4.62;;;;;;;38.46;26.80;100033.73;1396324;93;21546;-94
2022/07/01 11:25:05;;;;;;;20.00;4.95;;;;;;;38.64;26.74;100032.12;1416518;90;22536;-95
2022/07/01 11:27:34;;;;;;;19.57;4.80;;;;;;;38.75;25.58;100028.54;1426849;90;21621;-94
2022/07/01 11:30:13;;;;;;;18.75;4.78;;;;;;;38.82;26.26;100023.25;1400182;92;22308;-95
2022/07/01 11:32:48;;;;;;;8.38;3.30;;;;;;;39.00;25.43;100018.28;1398039;92;21427;-94
2022/07/01 11:41:03;;;;;;;32.88;6.12;;;;;;;38.44;25.00;100025.00;1407813;90;21302;-93